Time;durP1;ratioP1;P1;durP2;ratioP2;P2;SDS_P1;SDS_P2;PMS_P1;PMS_P2;Temp;Humidity;BMP_temperature;BMP_pressure;BME280_temperature;BME280_humidity;BME280_pressure;Samples;Min_cycle;Max_cycle;Signal;HPM_P1;HPM_P2
2021/10/17 00:02:23;;;;;;;5.50;4.97;;;;;;;9.86;70.23;101345.31;5011383;28;20109;-44
2021/10/17 00:04:48;;;;;;;5.57;5.05;;;;;;;9.88;70.10;101350.59;5013370;28;20104;-44
2021/10/17 00:07:14;;;;;;;5.95;4.60;;;;;;;9.86;70.24;101337.41;5006429;28;20065;-44
2021/10/17 00:09:40;;;;;;;5.07;4.30;;;;;;;9.85;70.30;101337.41;5014222;28;20109;-45
2021/10/17 00:12:07;;;;;;;4.90;4.40;;;;;;;9.86;70.31;101337.41;5007350;28;20109;-44
2021/10/17 00:14:32;;;;;;;5.60;4.80;;;;;;;9.86;70.37;101340.06;5007805;28;20076;-44
2021/10/17 00:16:58;;;;;;;5.13;4.53;;;;;;;9.86;70.07;101340.06;5011873;28;20030;-44
2021/10/17 00:19:23;;;;;;;5.38;4.88;;;;;;;9.85;70.13;101338.28;5012793;28;20499;-44
2021/10/17 00:21:48;;;;;;;6.55;4.57;;;;;;;9.86;70.39;101341.78;5012749;28;20064;-44
2021/10/17 00:24:14;;;;;;;5.40;4.90;;;;;;;9.86;70.10;101339.16;5008708;28;20110;-44
2021/10/17 00:26:39;;;;;;;6.20;5.65;;;;;;;9.85;70.16;101338.28;5012752;28;20032;-44
2021/10/17 00:29:05;;;;;;;6.85;4.97;;;;;;;9.86;70.13;101341.78;5013885;28;20026;-44
2021/10/17 00:31:31;;;;;;;4.28;3.88;;;;;;;9.85;70.19;101332.13;5011108;28;20554;-44
2021/10/17 00:33:56;;;;;;;5.00;4.55;;;;;;;9.85;70.10;101343.56;5010069;28;20057;-43
2021/10/17 00:36:21;;;;;;;4.68;4.28;;;;;;;9.86;70.53;101334.78;5014291;28;20021;-44
2021/10/17 00:38:47;;;;;;;5.63;4.70;;;;;;;9.85;70.04;101335.66;5011186;28;20033;-44
2021/10/17 00:41:12;;;;;;;4.60;4.20;;;;;;;9.84;70.11;101331.25;5009318;28;20044;-44
2021/10/17 00:43:37;;;;;;;6.32;4.68;;;;;;;9.84;70.33;101330.38;5009765;28;20560;-46
2021/10/17 00:46:03;;;;;;;5.07;4.57;;;;;;;9.84;70.21;101320.72;5009602;28;20053;-44
2021/10/17 00:48:28;;;;;;;4.65;4.25;;;;;;;9.85;70.27;101326.88;5016765;28;20030;-44
2021/10/17 00:50:54;;;;;;;5.00;4.55;;;;;;;9.85;70.14;101324.22;5014334;28;20452;-44
2021/10/17 00:53:20;;;;;;;4.78;4.38;;;;;;;9.85;70.12;101325.13;5014690;28;20036;-44
2021/10/17 00:55:46;;;;;;;7.72;4.53;;;;;;;9.84;70.25;101325.97;5009665;28;20035;-44
2021/10/17 00:58:15;;;;;;;6.05;5.03;;;;;;;9.84;70.38;101320.72;5015426;28;20029;-44
2021/10/17 01:00:40;;;;;;;5.18;4.68;;;;;;;9.84;70.06;101312.81;5047106;28;20419;-44
2021/10/17 01:03:05;;;;;;;5.93;4.65;;;;;;;9.84;70.26;101310.16;5013842;28;20030;-44
2021/10/17 01:05:31;;;;;;;5.78;5.20;;;;;;;9.85;70.33;101316.31;5016198;28;20129;-44
2021/10/17 01:07:57;;;;;;;4.63;4.22;;;;;;;9.84;70.41;101312.81;5015632;28;20088;-44
2021/10/17 01:10:22;;;;;;;6.35;4.50;;;;;;;9.84;70.29;101310.16;5014721;28;20465;-43
2021/10/17 01:12:47;;;;;;;5.07;4.57;;;;;;;9.84;70.32;101311.94;5016143;28;20468;-44
2021/10/17 01:15:13;;;;;;;5.60;4.90;;;;;;;9.84;70.07;101299.63;5017680;28;20159;-44
2021/10/17 01:17:38;;;;;;;6.88;4.65;;;;;;;9.84;70.37;101304.91;5015170;28;20029;-44
2021/10/17 01:20:05;;;;;;;6.18;4.78;;;;;;;9.84;70.35;101294.34;5013558;28;20392;-43
2021/10/17 01:22:31;;;;;;;5.35;4.72;;;;;;;9.84;70.18;101302.25;5012918;28;20037;-44
2021/10/17 01:24:56;;;;;;;5.15;4.10;;;;;;;9.82;70.13;101285.59;5015168;28;20030;-44
2021/10/17 01:27:21;;;;;;;5.15;4.60;;;;;;;9.83;70.41;101292.59;5013870;28;20409;-45
2021/10/17 01:29:47;;;;;;;4.65;4.25;;;;;;;9.83;70.32;101282.06;5014971;28;20160;-44
2021/10/17 01:32:13;;;;;;;5.10;4.60;;;;;;;9.83;70.13;101282.06;5014682;28;20030;-44
2021/10/17 01:34:38;;;;;;;4.55;4.15;;;;;;;9.83;70.26;101282.06;5017713;28;20053;-44
2021/10/17 01:37:03;;;;;;;5.57;4.35;;;;;;;9.85;70.07;101274.16;5015433;28;20104;-44
2021/10/17 01:39:29;;;;;;;5.00;4.50;;;;;;;9.84;70.34;101275.06;5011030;28;20022;-44
2021/10/17 01:41:54;;;;;;;5.20;4.70;;;;;;;9.83;70.31;101271.53;5010651;28;20034;-44
2021/10/17 01:44:27;;;;;;;5.20;4.70;;;;;;;9.84;70.33;101264.53;5016079;28;20077;-45
2021/10/17 01:46:54;;;;;;;5.22;4.82;;;;;;;9.83;70.07;101265.38;5015499;28;20034;-44
2021/10/17 01:49:20;;;;;;;5.07;4.57;;;;;;;9.83;70.46;101262.72;5012475;28;20026;-44
2021/10/17 01:51:45;;;;;;;6.20;4.80;;;;;;;9.83;70.00;101257.47;5013942;28;20032;-44
2021/10/17 01:54:10;;;;;;;6.55;4.90;;;;;;;9.83;70.08;101262.72;5008374;28;20025;-44
2021/10/17 01:56:37;;;;;;;5.85;4.13;;;;;;;9.82;70.43;101269.78;5011805;28;20052;-44
2021/10/17 01:59:02;;;;;;;5.68;4.75;;;;;;;9.82;70.37;101259.25;5014077;28;20022;-45
2021/10/17 02:01:28;;;;;;;6.60;4.60;;;;;;;9.83;70.13;101254.84;5008745;28;20080;-43
2021/10/17 02:03:54;;;;;;;4.85;4.40;;;;;;;9.83;70.43;101266.25;5016188;28;20369;-44
2021/10/17 02:06:19;;;;;;;6.43;4.72;;;;;;;9.82;70.27;101267.16;5006431;28;20034;-45
2021/10/17 02:08:46;;;;;;;5.25;4.50;;;;;;;9.80;70.34;101255.72;5010908;28;20030;-44
2021/10/17 02:11:11;;;;;;;5.60;4.72;;;;;;;9.82;70.22;101261.88;5012080;28;20032;-45
2021/10/17 02:13:36;;;;;;;6.20;4.70;;;;;;;9.81;70.09;101262.75;5013054;28;20037;-43
2021/10/17 02:16:02;;;;;;;5.65;4.50;;;;;;;9.81;70.40;101260.13;5014114;28;20049;-44
2021/10/17 02:18:27;;;;;;;5.60;4.65;;;;;;;9.82;70.29;101268.88;5014682;28;20029;-44
2021/10/17 02:20:52;;;;;;;6.50;4.38;;;;;;;9.81;70.29;101257.50;5012064;28;20030;-44
2021/10/17 02:23:18;;;;;;;7.10;4.78;;;;;;;9.81;70.13;101252.22;5013588;28;20113;-44
2021/10/17 02:25:43;;;;;;;6.80;4.63;;;;;;;9.81;70.32;101252.22;5006264;28;20044;-44
2021/10/17 02:28:09;;;;;;;5.88;4.78;;;;;;;9.81;70.39;101248.69;5009274;28;20037;-44
2021/10/17 02:30:34;;;;;;;6.90;4.20;;;;;;;9.81;70.16;101249.59;5011771;28;20140;-44
2021/10/17 02:32:59;;;;;;;5.32;4.50;;;;;;;9.79;69.91;101243.41;5014747;28;20096;-44
2021/10/17 02:35:25;;;;;;;4.93;4.43;;;;;;;9.81;70.33;101253.97;5014256;28;20076;-44
2021/10/17 02:37:50;;;;;;;4.38;3.88;;;;;;;9.81;70.23;101244.31;5016232;28;20017;-44
2021/10/17 02:40:15;;;;;;;5.15;4.57;;;;;;;9.80;70.10;101245.16;5008987;28;20034;-44
2021/10/17 02:42:41;;;;;;;5.38;4.85;;;;;;;9.79;70.11;101246.06;5013870;28;20029;-44
2021/10/17 02:45:06;;;;;;;4.82;4.10;;;;;;;9.80;70.01;101239.91;5013692;28;20044;-44
2021/10/17 02:47:32;;;;;;;4.82;3.78;;;;;;;9.80;70.00;101245.16;5017195;28;20021;-44
2021/10/17 02:49:57;;;;;;;4.53;4.13;;;;;;;9.79;70.16;101240.78;5043067;28;20100;-44
2021/10/17 02:52:23;;;;;;;4.57;4.18;;;;;;;9.81;69.99;101243.44;5012429;28;20051;-44
2021/10/17 02:54:48;;;;;;;4.97;4.32;;;;;;;9.79;70.29;101251.31;5013119;28;20031;-44
2021/10/17 02:57:13;;;;;;;4.53;4.03;;;;;;;9.78;70.38;101246.94;5013591;28;20065;-44
2021/10/17 02:59:39;;;;;;;5.00;4.55;;;;;;;9.79;70.04;101247.78;5011177;28;20025;-44
2021/10/17 03:02:04;;;;;;;5.53;4.10;;;;;;;9.79;70.10;101247.78;5009361;28;20022;-44
2021/10/17 03:04:29;;;;;;;5.18;4.43;;;;;;;9.78;70.06;101260.09;5013825;28;20152;-44
2021/10/17 03:06:55;;;;;;;4.97;4.32;;;;;;;9.78;70.22;101257.47;5013746;28;20479;-44
2021/10/17 03:09:20;;;;;;;4.65;4.20;;;;;;;9.78;69.91;101260.09;5015310;28;20022;-44
2021/10/17 03:11:45;;;;;;;6.15;4.65;;;;;;;9.78;70.03;101257.47;5010219;28;20061;-44
2021/10/17 03:14:11;;;;;;;5.32;4.18;;;;;;;9.76;70.00;101259.22;5012318;28;20033;-45
2021/10/17 03:16:36;;;;;;;5.30;4.65;;;;;;;9.76;69.99;101253.94;5006295;28;20106;-44
2021/10/17 03:19:01;;;;;;;5.10;4.22;;;;;;;9.76;70.11;101261.84;5013396;28;20025;-44
2021/10/17 03:21:27;;;;;;;4.60;4.20;;;;;;;9.76;70.13;101253.94;5010726;28;20033;-43
2021/10/17 03:23:52;;;;;;;5.35;4.10;;;;;;;9.76;70.19;101264.47;5012823;28;20022;-44
2021/10/17 03:26:18;;;;;;;4.72;4.13;;;;;;;9.75;70.08;101258.34;5013593;28;20160;-44
2021/10/17 03:28:44;;;;;;;5.85;4.00;;;;;;;9.75;69.92;101252.19;5007111;28;20095;-44
2021/10/17 03:31:09;;;;;;;4.90;4.32;;;;;;;9.75;70.10;101257.44;5007402;28;21495;-43
2021/10/17 03:33:35;;;;;;;5.15;4.15;;;;;;;9.74;70.12;101251.28;5013004;28;20028;-44
2021/10/17 03:36:00;;;;;;;6.93;4.50;;;;;;;9.73;69.89;101256.56;5015324;28;20029;-44
2021/10/17 03:38:26;;;;;;;4.93;4.32;;;;;;;9.74;69.88;101247.81;5014863;28;20352;-44
2021/10/17 03:40:51;;;;;;;5.93;4.65;;;;;;;9.74;69.95;101255.72;5009881;28;20472;-44
2021/10/17 03:43:16;;;;;;;5.40;4.25;;;;;;;9.75;70.04;101252.19;5011765;28;20059;-45
2021/10/17 03:45:42;;;;;;;7.22;3.80;;;;;;;9.73;69.84;101249.53;5012406;28;20428;-44
2021/10/17 03:48:08;;;;;;;4.82;4.32;;;;;;;9.72;69.91;101253.06;5010648;28;20037;-44
2021/10/17 03:50:33;;;;;;;4.50;4.10;;;;;;;9.74;69.94;101245.16;5007186;28;20029;-44
2021/10/17 03:52:59;;;;;;;4.38;3.95;;;;;;;9.73;69.76;101246.91;5009565;28;20092;-44
2021/10/17 03:55:24;;;;;;;4.85;4.32;;;;;;;9.72;70.04;101245.16;5045317;28;20464;-44
2021/10/17 03:57:50;;;;;;;4.60;4.20;;;;;;;9.73;69.84;101243.38;5012475;28;20057;-44
2021/10/17 04:00:15;;;;;;;4.50;3.90;;;;;;;9.72;69.71;101244.28;5007852;28;20033;-44
2021/10/17 04:02:40;;;;;;;6.88;4.25;;;;;;;9.72;69.91;101245.16;5037600;28;20052;-44
2021/10/17 04:05:06;;;;;;;4.35;3.92;;;;;;;9.70;69.89;101244.25;5008477;28;20562;-43
2021/10/17 04:07:31;;;;;;;4.75;3.70;;;;;;;9.71;69.91;101245.16;5037383;28;20717;-44
2021/10/17 04:09:57;;;;;;;4.40;3.92;;;;;;;9.70;69.74;101249.53;5010421;28;20077;-44
2021/10/17 04:12:22;;;;;;;4.78;3.50;;;;;;;9.70;69.88;101241.63;5010068;28;20392;-44
2021/10/17 04:14:47;;;;;;;4.20;3.80;;;;;;;9.71;69.69;101250.41;5009003;28;20461;-44
2021/10/17 04:17:13;;;;;;;4.88;4.13;;;;;;;9.69;69.78;101249.50;5011509;28;20026;-44
2021/10/17 04:19:38;;;;;;;4.53;3.97;;;;;;;9.69;69.86;101258.31;5008260;28;20038;-44
2021/10/17 04:22:03;;;;;;;4.20;3.80;;;;;;;9.69;69.82;101247.78;5010499;28;20025;-44
2021/10/17 04:24:29;;;;;;;4.88;4.03;;;;;;;9.70;69.82;101253.94;5021936;28;20026;-45
2021/10/17 04:26:54;;;;;;;6.15;3.78;;;;;;;9.70;69.77;101246.03;5012640;28;20026;-44
2021/10/17 04:29:19;;;;;;;4.50;4.10;;;;;;;9.68;69.83;101239.88;5014818;28;20479;-44
2021/10/17 04:31:45;;;;;;;4.03;3.63;;;;;;;9.68;69.64;101242.50;5014243;28;20038;-44
2021/10/17 04:34:10;;;;;;;4.85;3.58;;;;;;;9.67;69.80;101243.38;5014769;28;20034;-44
2021/10/17 04:36:36;;;;;;;5.03;3.28;;;;;;;9.68;69.71;101245.13;5018320;28;20118;-44
2021/10/17 04:39:01;;;;;;;3.58;3.28;;;;;;;9.68;69.81;101247.75;5016769;28;20030;-43
2021/10/17 04:41:26;;;;;;;4.25;3.85;;;;;;;9.68;69.77;101245.13;5013463;28;20021;-44
2021/10/17 04:43:52;;;;;;;4.72;3.45;;;;;;;9.67;69.68;101238.97;5016021;28;20069;-44
2021/10/17 04:46:17;;;;;;;4.38;3.70;;;;;;;9.68;69.76;101239.88;5012614;28;20030;-45
2021/10/17 04:48:42;;;;;;;5.43;3.67;;;;;;;9.67;69.48;101243.38;5015328;28;20033;-44
2021/10/17 04:51:08;;;;;;;3.70;3.40;;;;;;;9.66;69.75;101237.22;5017062;28;20109;-44
2021/10/17 04:53:33;;;;;;;5.57;3.65;;;;;;;9.66;69.53;101241.59;5016933;28;20061;-44
2021/10/17 04:55:58;;;;;;;5.90;3.83;;;;;;;9.65;69.54;101237.22;5015015;28;20041;-46
2021/10/17 04:58:26;;;;;;;5.25;3.90;;;;;;;9.65;69.55;101240.75;5013515;28;20030;-49
2021/10/17 05:00:51;;;;;;;5.00;3.72;;;;;;;9.65;69.63;101243.38;5013736;28;20033;-44
2021/10/17 05:03:17;;;;;;;5.43;3.50;;;;;;;9.63;69.62;101238.09;5016781;28;20034;-44
2021/10/17 05:05:42;;;;;;;4.47;4.00;;;;;;;9.63;69.48;101243.38;5013227;28;20053;-44
2021/10/17 05:08:08;;;;;;;4.18;3.78;;;;;;;9.63;69.56;101243.38;5043334;28;20365;-44
2021/10/17 05:10:33;;;;;;;3.83;3.53;;;;;;;9.62;69.26;101252.16;5016497;28;20037;-43
2021/10/17 05:12:58;;;;;;;4.03;3.63;;;;;;;9.62;69.50;101252.16;5014688;28;20136;-44
2021/10/17 05:15:23;;;;;;;3.90;3.50;;;;;;;9.61;69.61;101241.59;5010596;28;20459;-44
2021/10/17 05:17:49;;;;;;;3.97;3.45;;;;;;;9.61;69.40;101249.50;5011635;28;20026;-44
2021/10/17 05:20:14;;;;;;;4.10;3.70;;;;;;;9.61;69.51;101253.00;5014036;28;20056;-44
2021/10/17 05:22:39;;;;;;;4.40;3.65;;;;;;;9.61;69.49;101253.00;5015046;28;21388;-44
2021/10/17 05:25:05;;;;;;;3.85;3.45;;;;;;;9.62;69.33;101256.53;5016532;28;20113;-44
2021/10/17 05:27:30;;;;;;;3.85;3.15;;;;;;;9.60;69.41;101256.50;5012720;28;20052;-44
2021/10/17 05:29:55;;;;;;;4.35;3.70;;;;;;;9.60;69.18;101253.88;5006185;28;20041;-44
2021/10/17 05:32:23;;;;;;;3.58;3.15;;;;;;;9.60;69.19;101253.88;5009815;28;20395;-44
2021/10/17 05:34:48;;;;;;;6.47;3.85;;;;;;;9.60;69.17;101253.88;5011434;28;20065;-43
2021/10/17 05:37:13;;;;;;;3.85;3.55;;;;;;;9.59;69.44;101251.25;5014275;28;20053;-44
2021/10/17 05:39:39;;;;;;;4.80;3.40;;;;;;;9.58;69.35;101260.91;5004735;28;20526;-44
2021/10/17 05:42:04;;;;;;;4.03;3.63;;;;;;;9.58;69.33;101260.91;5042637;28;20470;-44
2021/10/17 05:44:30;;;;;;;4.65;3.88;;;;;;;9.59;69.23;101265.28;5012655;28;20461;-44
2021/10/17 05:46:55;;;;;;;4.53;3.47;;;;;;;9.58;69.12;101266.19;5010183;28;20025;-44
2021/10/17 05:49:21;;;;;;;4.43;4.03;;;;;;;9.56;69.14;101267.91;5011087;28;20034;-44
2021/10/17 05:51:46;;;;;;;4.15;3.75;;;;;;;9.57;69.11;101272.28;5014304;28;20025;-44
2021/10/17 05:54:11;;;;;;;4.35;3.95;;;;;;;9.57;69.23;101269.66;5007841;28;20034;-44
2021/10/17 05:56:37;;;;;;;4.20;3.75;;;;;;;9.56;69.34;101267.91;5014115;28;20076;-44
2021/10/17 05:59:02;;;;;;;4.28;3.90;;;;;;;9.55;69.27;101268.78;5014520;28;20029;-44
2021/10/17 06:01:27;;;;;;;7.05;4.40;;;;;;;9.55;69.11;101271.44;5007326;28;20088;-44
2021/10/17 06:03:53;;;;;;;4.50;3.95;;;;;;;9.56;69.25;101273.19;5036984;28;20022;-45
2021/10/17 06:06:18;;;;;;;5.00;3.85;;;;;;;9.55;69.33;101281.06;5009197;28;20026;-45
2021/10/17 06:08:43;;;;;;;4.90;3.88;;;;;;;9.56;69.06;101283.72;5010925;28;20030;-45
2021/10/17 06:11:09;;;;;;;4.70;4.10;;;;;;;9.54;69.27;101290.72;5007224;28;20049;-45
2021/10/17 06:13:35;;;;;;;6.05;4.05;;;;;;;9.54;69.26;101290.72;5007646;28;20026;-45
2021/10/17 06:16:00;;;;;;;5.05;4.10;;;;;;;9.55;69.01;101292.50;5011763;28;20034;-45
2021/10/17 06:18:25;;;;;;;6.72;4.00;;;;;;;9.55;69.16;101296.88;5008765;28;20041;-45
2021/10/17 06:20:51;;;;;;;5.38;4.57;;;;;;;9.55;69.03;101296.88;5008306;28;20547;-45
2021/10/17 06:23:16;;;;;;;4.78;4.30;;;;;;;9.54;69.18;101301.25;5013417;28;20030;-44
2021/10/17 06:25:41;;;;;;;5.05;4.55;;;;;;;9.54;69.01;101300.38;5015078;28;20033;-45
2021/10/17 06:28:07;;;;;;;6.10;4.22;;;;;;;9.53;69.10;101294.22;5014248;28;20413;-45
2021/10/17 06:30:32;;;;;;;7.25;3.92;;;;;;;9.52;69.17;101304.75;5014481;28;20403;-45
2021/10/17 06:32:57;;;;;;;5.68;4.72;;;;;;;9.52;69.12;101296.84;5008597;28;20105;-45
2021/10/17 06:35:23;;;;;;;6.47;5.05;;;;;;;9.50;69.28;101305.63;5009699;28;20076;-44
2021/10/17 06:37:48;;;;;;;6.30;5.07;;;;;;;9.51;69.33;101303.88;5008304;28;20125;-45
2021/10/17 06:40:13;;;;;;;5.53;4.40;;;;;;;9.49;69.45;101306.50;5010991;28;20034;-46
2021/10/17 06:42:39;;;;;;;6.00;4.55;;;;;;;9.51;69.00;101319.69;5005843;28;20117;-45
2021/10/17 06:45:04;;;;;;;7.93;5.20;;;;;;;9.51;69.11;101319.69;5010669;28;20061;-46
2021/10/17 06:47:30;;;;;;;4.82;4.18;;;;;;;9.51;69.35;101314.41;5008206;28;20064;-45
2021/10/17 06:49:55;;;;;;;5.60;4.30;;;;;;;9.48;69.25;101317.03;5008165;28;20717;-45
2021/10/17 06:52:20;;;;;;;6.32;4.72;;;;;;;9.50;69.27;101323.16;5009987;28;20033;-45
2021/10/17 06:54:45;;;;;;;5.63;4.13;;;;;;;9.49;69.12;101316.16;5005754;28;20049;-45
2021/10/17 06:57:11;;;;;;;5.95;4.25;;;;;;;9.50;68.79;101323.16;5009877;28;20127;-45
2021/10/17 06:59:36;;;;;;;7.22;5.43;;;;;;;9.49;69.37;101332.84;5013299;28;20033;-45
2021/10/17 07:02:01;;;;;;;4.88;4.25;;;;;;;9.48;69.20;101322.28;5014987;28;20037;-45
2021/10/17 07:04:27;;;;;;;5.57;4.57;;;;;;;9.49;69.29;101324.03;5012655;28;20049;-45
2021/10/17 07:06:52;;;;;;;5.88;5.00;;;;;;;9.49;69.24;101326.69;5011705;28;20025;-46
2021/10/17 07:09:17;;;;;;;4.93;4.35;;;;;;;9.47;69.28;101331.94;5012831;28;20488;-45
2021/10/17 07:11:43;;;;;;;5.13;4.10;;;;;;;9.47;69.29;101331.94;5014758;28;20029;-46
2021/10/17 07:14:08;;;;;;;5.53;4.90;;;;;;;9.48;69.50;101335.47;5010673;28;20709;-45
2021/10/17 07:16:34;;;;;;;6.25;4.90;;;;;;;9.48;69.34;101335.47;5013207;28;20033;-45
2021/10/17 07:18:59;;;;;;;4.50;4.10;;;;;;;9.47;69.39;101334.56;5012041;28;20044;-45
2021/10/17 07:21:24;;;;;;;6.88;4.50;;;;;;;9.47;69.41;101338.97;5009731;28;20649;-43
2021/10/17 07:23:49;;;;;;;5.90;4.85;;;;;;;9.47;69.39;101339.84;5006265;28;20472;-45
2021/10/17 07:26:15;;;;;;;5.10;4.38;;;;;;;9.47;69.39;101341.59;5007267;28;20037;-46
2021/10/17 07:28:40;;;;;;;5.60;5.10;;;;;;;9.46;69.42;101335.44;5007840;28;20088;-44
2021/10/17 07:31:06;;;;;;;4.95;4.55;;;;;;;9.47;69.42;101349.50;5008927;28;20053;-45
2021/10/17 07:33:31;;;;;;;5.95;4.80;;;;;;;9.45;69.44;101338.97;5011093;28;20166;-46
2021/10/17 07:35:56;;;;;;;4.20;3.80;;;;;;;9.46;69.27;101345.09;5012991;28;20108;-45
2021/10/17 07:38:23;;;;;;;4.40;4.00;;;;;;;9.45;69.37;101348.59;5007361;28;20034;-45
2021/10/17 07:40:49;;;;;;;5.00;4.50;;;;;;;9.45;69.20;101348.59;5010940;28;20037;-45
2021/10/17 07:43:14;;;;;;;4.53;4.10;;;;;;;9.45;69.43;101340.69;5012853;28;20033;-45
2021/10/17 07:45:39;;;;;;;6.35;4.55;;;;;;;9.44;69.56;101337.19;5005630;28;20135;-45
2021/10/17 07:48:04;;;;;;;6.88;4.90;;;;;;;9.45;69.43;101335.44;5006425;28;20036;-45
2021/10/17 07:50:30;;;;;;;6.53;4.63;;;;;;;9.45;69.32;101338.06;5021947;28;20083;-45
2021/10/17 07:52:55;;;;;;;5.85;4.85;;;;;;;9.45;69.26;101343.34;5009280;28;20071;-45
2021/10/17 07:55:21;;;;;;;5.68;4.43;;;;;;;9.44;69.57;101352.97;5008115;28;20017;-45
2021/10/17 07:57:52;;;;;;;4.57;4.18;;;;;;;9.43;69.54;101345.06;5009430;28;20029;-46
2021/10/17 08:00:25;;;;;;;4.38;3.85;;;;;;;9.43;69.48;101353.84;5005128;28;20167;-45
2021/10/17 08:02:50;;;;;;;4.95;4.30;;;;;;;9.43;69.30;101351.22;5002018;28;20033;-46
2021/10/17 08:05:16;;;;;;;4.97;4.20;;;;;;;9.43;69.23;101352.97;5006078;28;20153;-45
2021/10/17 08:07:41;;;;;;;5.60;4.57;;;;;;;9.42;69.35;101354.72;5010013;28;20025;-45
2021/10/17 08:10:08;;;;;;;4.55;4.15;;;;;;;9.43;69.42;101356.50;5010848;28;20026;-45
2021/10/17 08:12:33;;;;;;;6.10;5.15;;;;;;;9.42;69.59;101357.38;5008997;28;20462;-46
2021/10/17 08:14:59;;;;;;;5.63;4.43;;;;;;;9.42;69.42;101344.19;5012069;28;20029;-45
2021/10/17 08:17:24;;;;;;;4.85;3.65;;;;;;;9.42;69.50;101349.47;5007255;28;20022;-43
2021/10/17 08:19:51;;;;;;;5.40;4.60;;;;;;;9.43;69.46;101350.31;5001688;28;20368;-45
2021/10/17 08:22:17;;;;;;;4.25;3.83;;;;;;;9.42;69.55;101351.22;5010813;28;20018;-44
2021/10/17 08:24:42;;;;;;;5.55;4.03;;;;;;;9.42;69.58;101353.84;5002308;28;20120;-44
2021/10/17 08:27:08;;;;;;;5.20;4.10;;;;;;;9.42;69.39;101353.84;5000687;28;20033;-45
2021/10/17 08:29:33;;;;;;;5.60;4.40;;;;;;;9.42;69.42;101348.56;5001958;28;20066;-43
2021/10/17 08:31:58;;;;;;;4.28;3.88;;;;;;;9.42;69.44;101348.56;5003400;28;20061;-44
2021/10/17 08:34:24;;;;;;;5.57;4.45;;;;;;;9.42;69.65;101343.31;5004472;28;20113;-44
2021/10/17 08:36:49;;;;;;;5.75;4.63;;;;;;;9.42;69.43;101348.56;5007521;28;20024;-44
2021/10/17 08:39:14;;;;;;;8.27;4.78;;;;;;;9.41;69.31;101342.44;5004305;28;20040;-44
2021/10/17 08:41:40;;;;;;;5.25;3.83;;;;;;;9.42;69.37;101343.31;5008439;28;20034;-43
2021/10/17 08:44:05;;;;;;;6.75;4.30;;;;;;;9.41;69.43;101339.81;4998877;28;20026;-44
2021/10/17 08:46:32;;;;;;;5.63;3.90;;;;;;;9.41;69.42;101337.19;5005970;28;20021;-44
2021/10/17 08:48:58;;;;;;;5.20;4.40;;;;;;;9.45;69.44;101330.16;5008019;23;20755;-43
2021/10/17 08:51:24;;;;;;;10.40;5.93;;;;;;;9.45;69.70;101338.97;4938136;29;20024;-43
2021/10/17 08:53:50;;;;;;;38.70;8.98;;;;;;;9.49;70.95;101342.47;4930945;29;20042;-42
2021/10/17 08:56:15;;;;;;;20.95;7.93;;;;;;;9.46;70.77;101340.72;4940694;29;20031;-41
2021/10/17 08:58:43;;;;;;;18.33;7.43;;;;;;;9.52;71.16;101344.25;4936335;28;20019;-41
2021/10/17 09:01:16;;;;;;;18.40;7.97;;;;;;;9.57;70.45;101353.06;4940840;29;20042;-42
2021/10/17 09:03:42;;;;;;;15.68;7.47;;;;;;;9.52;70.85;101350.41;4934025;29;20105;-40
2021/10/17 09:06:18;;;;;;;9.88;6.43;;;;;;;9.50;70.10;101352.13;4938019;29;20518;-41
2021/10/17 09:08:45;;;;;;;6.80;6.15;;;;;;;9.47;70.29;101341.59;4937112;29;20031;-42
2021/10/17 09:11:11;;;;;;;12.38;6.82;;;;;;;9.43;70.24;101339.78;4942551;29;20043;-42
2021/10/17 09:14:03;;;;;;;10.15;6.80;;;;;;;9.43;70.66;101335.44;4933657;29;20494;-41
2021/10/17 09:16:29;;;;;;;9.45;6.45;;;;;;;9.41;70.95;101331.91;4934399;29;20027;-40
2021/10/17 09:19:06;;;;;;;10.98;7.40;;;;;;;9.45;71.44;101338.06;4935742;29;20046;-39
2021/10/17 09:21:31;;;;;;;12.88;6.57;;;;;;;9.44;71.02;101337.19;4940830;29;20031;-40
2021/10/17 09:23:58;;;;;;;11.20;8.60;;;;;;;9.42;70.81;101338.03;4952715;23;20023;-42
2021/10/17 09:26:23;;;;;;;12.15;10.10;;;;;;;9.42;70.70;101333.66;4950649;28;20027;-42
2021/10/17 09:28:50;;;;;;;12.10;8.57;;;;;;;9.42;71.09;101327.50;4943629;28;20050;-42
2021/10/17 09:31:17;;;;;;;8.95;6.65;;;;;;;9.46;71.67;101332.81;4945947;28;20031;-42
2021/10/17 09:33:54;;;;;;;12.38;7.28;;;;;;;9.48;72.35;101332.81;4964888;28;20023;-44
2021/10/17 09:36:27;;;;;;;10.70;7.45;;;;;;;9.43;71.71;101334.53;4936000;29;20555;-46
2021/10/17 09:39:06;;;;;;;10.93;6.95;;;;;;;9.42;71.28;101338.03;4932903;29;20043;-41
2021/10/17 09:41:36;;;;;;;17.02;7.15;;;;;;;9.42;71.49;101338.03;4911985;29;20036;-43
2021/10/17 09:44:03;;;;;;;8.40;5.82;;;;;;;9.43;71.34;101337.16;4927986;29;20481;-42
2021/10/17 09:46:29;;;;;;;10.05;7.00;;;;;;;9.45;71.15;101340.69;4927639;29;20032;-41
2021/10/17 09:48:55;;;;;;;8.00;6.00;;;;;;;9.45;70.96;101343.34;4930962;29;20030;-42
2021/10/17 09:51:26;;;;;;;7.00;5.78;;;;;;;9.45;70.85;101341.59;4926657;29;20020;-42
2021/10/17 09:53:54;;;;;;;10.70;6.15;;;;;;;9.45;70.84;101338.97;4926730;29;20024;-42
2021/10/17 09:56:38;;;;;;;6.47;5.50;;;;;;;9.45;70.65;101344.22;4928049;29;20027;-43
2021/10/17 09:59:08;;;;;;;6.78;5.88;;;;;;;9.45;70.63;101348.59;4934467;29;20512;-42
2021/10/17 10:01:35;;;;;;;9.63;5.82;;;;;;;9.44;70.66;101358.25;4931407;29;20135;-42
2021/10/17 10:04:03;;;;;;;6.90;5.63;;;;;;;9.43;70.51;101356.50;4924055;29;20024;-42
2021/10/17 10:06:29;;;;;;;6.32;5.00;;;;;;;9.42;70.48;101356.47;4925342;29;20130;-41
2021/10/17 10:09:03;;;;;;;6.15;4.82;;;;;;;9.40;70.67;101359.09;4925757;28;20119;-42
2021/10/17 10:11:30;;;;;;;7.95;5.22;;;;;;;9.42;70.42;101353.84;4936766;29;20055;-41
2021/10/17 10:13:57;;;;;;;9.63;5.30;;;;;;;9.41;70.60;101346.81;4934607;29;20058;-43
2021/10/17 10:16:24;;;;;;;8.15;5.50;;;;;;;9.42;70.25;101353.84;4927698;29;20036;-43
2021/10/17 10:18:52;;;;;;;8.05;5.55;;;;;;;9.41;70.58;101352.97;4930485;29;20034;-43
2021/10/17 10:21:18;;;;;;;5.70;4.32;;;;;;;9.40;70.61;101351.19;4933679;29;20482;-43
2021/10/17 10:23:43;;;;;;;11.63;5.18;;;;;;;9.41;70.55;101360.00;4935083;28;20023;-42
2021/10/17 10:26:09;;;;;;;6.85;4.88;;;;;;;9.40;70.36;101351.19;4925711;29;20044;-43
2021/10/17 10:28:38;;;;;;;8.07;5.10;;;;;;;9.41;70.58;101341.56;4932292;29;20420;-42
2021/10/17 10:31:03;;;;;;;5.63;5.05;;;;;;;9.41;70.56;101336.28;4930287;29;20478;-42
2021/10/17 10:33:41;;;;;;;7.63;4.70;;;;;;;9.40;70.57;101327.50;4929009;28;20023;-42
2021/10/17 10:36:11;;;;;;;6.65;4.97;;;;;;;9.40;70.60;101337.16;4931551;29;20069;-42
2021/10/17 10:38:52;;;;;;;6.40;5.03;;;;;;;9.41;70.34;101338.91;4924317;29;20142;-42
2021/10/17 10:41:23;;;;;;;5.30;4.80;;;;;;;9.41;70.38;101346.81;4926685;29;20062;-42
2021/10/17 10:43:49;;;;;;;5.55;4.50;;;;;;;9.41;70.44;101341.56;4928155;29;20469;-42
2021/10/17 10:46:28;;;;;;;6.82;5.13;;;;;;;9.41;70.53;101341.56;4929351;29;20039;-42
2021/10/17 10:48:53;;;;;;;6.47;5.07;;;;;;;9.41;70.25;101346.81;4930473;29;20513;-42
2021/10/17 10:51:39;;;;;;;6.38;4.70;;;;;;;9.41;70.36;101352.09;4927320;29;20090;-42
2021/10/17 10:54:23;;;;;;;5.70;5.10;;;;;;;9.39;70.33;101338.91;4927545;29;20027;-42
2021/10/17 10:56:49;;;;;;;7.05;5.00;;;;;;;9.39;70.36;101338.00;4924005;29;20027;-42
2021/10/17 10:59:17;;;;;;;5.97;4.53;;;;;;;9.38;70.40;101342.41;4918361;29;20032;-42
2021/10/17 11:02:07;;;;;;;6.57;4.85;;;;;;;9.41;70.61;101328.41;4924886;29;20040;-42
2021/10/17 11:04:42;;;;;;;5.53;4.75;;;;;;;9.40;70.54;101329.28;4923994;29;20493;-42
2021/10/17 11:07:20;;;;;;;5.32;4.63;;;;;;;9.40;70.66;101339.81;4923409;29;20053;-42
2021/10/17 11:09:47;;;;;;;4.22;3.83;;;;;;;9.40;70.42;101347.69;4921760;29;20050;-42
2021/10/17 11:12:40;;;;;;;5.88;4.95;;;;;;;9.39;70.28;101349.44;4930992;29;20517;-42
2021/10/17 11:15:07;;;;;;;4.90;4.07;;;;;;;9.39;70.45;101349.44;4924216;29;20042;-42
2021/10/17 11:17:32;;;;;;;7.47;4.72;;;;;;;9.39;70.49;101351.19;4921190;29;20082;-43
2021/10/17 11:19:58;;;;;;;4.38;3.97;;;;;;;9.40;70.59;101355.59;4921500;29;20549;-42
2021/10/17 11:22:23;;;;;;;5.40;4.30;;;;;;;9.39;70.45;101354.72;4923242;29;20028;-42
2021/10/17 11:24:55;;;;;;;5.47;4.03;;;;;;;9.39;70.04;101349.44;4923897;28;20852;-42
2021/10/17 11:27:21;;;;;;;5.75;4.32;;;;;;;9.40;70.33;101345.94;4921340;29;20598;-42
2021/10/17 11:29:49;;;;;;;6.28;5.20;;;;;;;9.40;70.49;101350.34;4929041;29;20034;-42